Portada
METAR-TAF:

METAR-TAF

Aeropuertos :

Aeropuerto de Gran Canaria

Gran Canaria, España

latitud: 27-56N, longitud: 015-23W, altitud: 23 m

Observación

El informe se hizo hace 20 minutos, a las 01:00 UTC
Viento 19 kt del norte
Temperatura 23°C
Humedad 83%
Presión 1017 hPa
Visibilidad 10 km o más
Escasas nubes a una altura de 3500 ft

METAR: GCLP 250100Z 01019KT 9999 FEW035 23/20 Q1017 NOSIG

Hora: 02:20 (01:20 UTC)

Pronóstico

El informe se hizo hace 11 horas y 20 minutos, a las 14:00 UTC
Pronóstico válido del 24 a las 15 UTC al 25 a las 15 UTC
Viento 20 kt del norte-noreste
Visibilidad 10 km o más
Escasas nubes a una altura de 2500 ft

TAF: GCLP 241400Z 2415/2515 02020KT 9999 FEW025 TX28/2514Z TN22/2506Z

Observaciones y pronósticos meteorológicos de más de 4000 aeropuertos (mensajes METAR y TAF).

Los puntos amarillos y rojos representan las estaciones disponibles.

Ponga el ratón en el punto deseado para ver el nombre de la estación.

Haga clic para ver las observaciones y los pronósticos meteorológicos.

Para cambiar el mapa : haga clic en los botones verdes con una cruz de color negro para hacer un zoom, en el botón verde con un guión para alejar o en las flechas verdes para mapas adyacentes.


METAR-TAF: